Time;durP1;ratioP1;P1;durP2;ratioP2;P2;SDS_P1;SDS_P2;PMS_P1;PMS_P2;Temp;Humidity;BMP_temperature;BMP_pressure;BME280_temperature;BME280_humidity;BME280_pressure;Samples;Min_cycle;Max_cycle;Signal;HPM_P1;HPM_P2
2023/02/05 00:00:07;;;;;;;4.65;3.13;;;9.90;99.90;;;;;;6219908;23;20064;-79
2023/02/05 00:02:33;;;;;;;4.35;2.97;;;9.90;99.90;;;;;;6221010;23;20000;-80
2023/02/05 00:04:59;;;;;;;3.78;3.13;;;9.90;99.90;;;;;;6221187;23;20043;-79
2023/02/05 00:07:25;;;;;;;4.78;3.20;;;9.90;99.90;;;;;;6221109;23;20001;-79
2023/02/05 00:09:50;;;;;;;4.07;2.72;;;9.90;99.90;;;;;;6220888;23;20001;-79
2023/02/05 00:12:16;;;;;;;5.38;3.22;;;9.80;99.90;;;;;;6220798;23;20047;-78
2023/02/05 00:14:42;;;;;;;5.72;3.10;;;9.80;99.90;;;;;;6219750;23;20418;-78
2023/02/05 00:17:07;;;;;;;3.45;2.70;;;9.90;99.90;;;;;;6220816;23;20000;-78
2023/02/05 00:19:33;;;;;;;3.70;2.63;;;9.80;99.90;;;;;;6221174;23;20421;-78
2023/02/05 00:21:58;;;;;;;3.92;2.75;;;9.80;99.90;;;;;;6219200;23;20004;-77
2023/02/05 00:24:24;;;;;;;4.05;2.88;;;9.80;99.90;;;;;;6220050;23;20498;-78
2023/02/05 00:26:50;;;;;;;5.03;3.17;;;9.70;99.90;;;;;;6219826;23;20084;-78
2023/02/05 00:29:22;;;;;;;4.95;2.70;;;9.70;99.90;;;;;;6218054;23;20092;-78
2023/02/05 00:31:48;;;;;;;4.15;2.80;;;9.70;99.90;;;;;;6218128;23;20025;-77
2023/02/05 00:34:15;;;;;;;4.60;3.22;;;9.70;99.90;;;;;;6220366;23;20097;-78
2023/02/05 00:36:40;;;;;;;5.55;3.53;;;9.70;99.90;;;;;;6219661;23;20076;-77
2023/02/05 00:39:08;;;;;;;5.85;2.92;;;9.70;99.90;;;;;;6221286;23;20055;-77
2023/02/05 00:41:34;;;;;;;4.57;2.65;;;9.70;99.90;;;;;;6219807;23;20032;-77
2023/02/05 00:43:59;;;;;;;5.65;3.20;;;9.70;99.90;;;;;;6221594;23;20008;-78
2023/02/05 00:46:25;;;;;;;5.05;2.97;;;9.70;99.90;;;;;;6219013;23;20322;-77
2023/02/05 00:48:51;;;;;;;6.10;2.53;;;9.70;99.90;;;;;;6218856;23;20035;-78
2023/02/05 00:51:17;;;;;;;3.35;2.60;;;9.70;99.90;;;;;;6220290;23;20001;-78
2023/02/05 00:53:42;;;;;;;3.38;2.80;;;9.70;99.90;;;;;;6220109;23;20005;-78
2023/02/05 00:56:08;;;;;;;4.25;2.60;;;9.70;99.90;;;;;;6220967;23;20043;-78
2023/02/05 00:58:34;;;;;;;4.38;2.80;;;9.70;99.90;;;;;;6216507;23;20012;-78
2023/02/05 01:00:59;;;;;;;4.97;2.55;;;9.70;99.90;;;;;;6218726;23;20055;-78
2023/02/05 01:03:26;;;;;;;3.40;2.70;;;9.70;99.90;;;;;;6219595;23;20010;-79
2023/02/05 01:05:52;;;;;;;4.43;2.90;;;9.70;99.90;;;;;;6220398;23;20012;-78
2023/02/05 01:08:18;;;;;;;5.13;2.55;;;9.60;99.90;;;;;;6219985;23;20079;-78
2023/02/05 01:10:45;;;;;;;3.45;2.72;;;9.60;99.90;;;;;;6218833;23;20102;-78
2023/02/05 01:13:11;;;;;;;4.10;2.80;;;9.60;99.90;;;;;;6220872;23;20548;-78
2023/02/05 01:15:37;;;;;;;4.57;2.65;;;9.60;99.90;;;;;;6220732;23;19997;-78
2023/02/05 01:18:03;;;;;;;3.75;2.55;;;9.60;99.90;;;;;;6219934;23;20012;-78
2023/02/05 01:20:29;;;;;;;3.22;2.50;;;9.60;99.90;;;;;;6220070;23;20005;-78
2023/02/05 01:22:55;;;;;;;3.47;2.53;;;9.60;99.90;;;;;;6220146;23;20007;-78
2023/02/05 01:25:21;;;;;;;3.88;2.75;;;9.60;99.90;;;;;;6219729;23;20008;-78
2023/02/05 01:27:46;;;;;;;5.18;3.20;;;9.60;99.90;;;;;;6218654;23;20418;-78
2023/02/05 01:30:12;;;;;;;5.20;3.22;;;9.60;99.90;;;;;;6220656;23;20001;-78
2023/02/05 01:32:39;;;;;;;4.43;2.92;;;9.70;99.90;;;;;;6219575;23;20381;-77
2023/02/05 01:35:05;;;;;;;3.97;2.67;;;9.70;99.90;;;;;;6218486;23;20058;-77
2023/02/05 01:37:31;;;;;;;3.80;2.90;;;9.80;99.90;;;;;;6218444;23;20001;-78
2023/02/05 01:39:57;;;;;;;4.72;3.03;;;9.80;99.90;;;;;;6218740;23;20434;-78
2023/02/05 01:42:28;;;;;;;3.92;2.70;;;9.80;99.90;;;;;;6220559;23;20031;-78
2023/02/05 01:45:21;;;;;;;4.22;2.80;;;9.80;99.90;;;;;;6220301;23;20008;-78
2023/02/05 01:47:49;;;;;;;5.63;3.28;;;9.90;99.90;;;;;;6220287;23;20004;-78
2023/02/05 01:50:16;;;;;;;6.53;3.08;;;9.90;99.90;;;;;;6218955;23;20361;-78
2023/02/05 01:52:42;;;;;;;5.35;3.08;;;9.90;99.90;;;;;;6220319;23;20044;-77
2023/02/05 01:55:08;;;;;;;3.88;2.78;;;9.80;99.90;;;;;;6220157;23;20076;-78
2023/02/05 01:57:36;;;;;;;5.07;2.92;;;9.80;99.90;;;;;;6220203;23;20116;-78
2023/02/05 02:00:03;;;;;;;3.85;3.08;;;9.80;99.90;;;;;;6220763;23;20000;-78
2023/02/05 02:02:29;;;;;;;3.88;2.70;;;9.90;99.90;;;;;;6220949;23;20004;-78
2023/02/05 02:05:00;;;;;;;4.43;2.83;;;9.90;99.90;;;;;;6220688;23;20009;-78
2023/02/05 02:07:26;;;;;;;4.43;3.17;;;9.80;99.90;;;;;;6222048;23;20001;-78
2023/02/05 02:09:53;;;;;;;4.85;3.20;;;9.80;99.90;;;;;;6220521;23;20009;-78
2023/02/05 02:12:25;;;;;;;4.97;3.10;;;9.80;99.90;;;;;;6220944;23;20000;-78
2023/02/05 02:14:55;;;;;;;4.15;3.00;;;9.80;99.90;;;;;;6222413;23;20322;-78
2023/02/05 02:17:22;;;;;;;3.42;2.63;;;9.80;99.90;;;;;;6222163;23;20011;-78
2023/02/05 02:19:57;;;;;;;3.58;2.78;;;9.80;99.90;;;;;;6222244;23;20004;-78
2023/02/05 02:22:32;;;;;;;4.07;2.33;;;9.70;99.90;;;;;;6221934;23;20000;-78
2023/02/05 02:25:25;;;;;;;5.93;2.83;;;9.70;99.90;;;;;;6221825;23;20437;-78
2023/02/05 02:28:19;;;;;;;4.37;2.53;;;9.70;99.90;;;;;;6220596;23;20087;-78
2023/02/05 02:31:21;;;;;;;3.83;2.63;;;9.70;99.90;;;;;;6220618;23;20247;-78
2023/02/05 02:34:00;;;;;;;4.20;2.30;;;9.70;99.90;;;;;;6218618;23;20008;-78
2023/02/05 02:36:39;;;;;;;4.45;3.05;;;9.70;99.90;;;;;;6220321;23;20007;-78
2023/02/05 02:39:31;;;;;;;2.90;2.45;;;9.70;99.90;;;;;;6221783;23;19996;-78
2023/02/05 02:42:11;;;;;;;3.63;2.33;;;9.60;99.90;;;;;;6222022;23;20027;-78
2023/02/05 02:44:54;;;;;;;3.65;2.55;;;9.60;99.90;;;;;;6222125;23;19996;-78
2023/02/05 02:47:24;;;;;;;4.32;2.35;;;9.60;99.90;;;;;;6221702;23;20012;-78
2023/02/05 02:49:54;;;;;;;3.55;2.90;;;9.60;99.90;;;;;;6222175;23;20001;-78
2023/02/05 02:52:22;;;;;;;3.78;2.50;;;9.60;99.90;;;;;;6220436;23;20001;-78
2023/02/05 02:54:51;;;;;;;3.92;2.25;;;9.60;99.90;;;;;;6221465;23;20076;-78
2023/02/05 02:57:20;;;;;;;4.03;2.75;;;9.60;99.90;;;;;;6221769;23;20087;-78
2023/02/05 02:59:48;;;;;;;4.55;2.50;;;9.50;99.90;;;;;;6221753;23;20004;-78
2023/02/05 03:02:15;;;;;;;3.95;2.42;;;9.50;99.90;;;;;;6221682;23;20012;-78
2023/02/05 03:04:46;;;;;;;3.20;2.13;;;9.50;99.90;;;;;;6220484;23;20434;-78
2023/02/05 03:07:16;;;;;;;3.42;2.30;;;9.40;99.90;;;;;;6221535;23;20025;-78
2023/02/05 03:10:02;;;;;;;3.55;2.08;;;9.40;99.90;;;;;;6221267;23;19996;-79
2023/02/05 03:12:28;;;;;;;2.83;2.17;;;9.40;99.90;;;;;;6221178;23;20011;-78
2023/02/05 03:14:54;;;;;;;4.03;2.40;;;9.50;99.90;;;;;;6219860;23;20040;-78
2023/02/05 03:17:21;;;;;;;3.72;2.03;;;9.50;99.90;;;;;;6221445;23;20000;-78
2023/02/05 03:19:54;;;;;;;3.75;2.53;;;9.50;99.90;;;;;;6221695;23;20464;-78
2023/02/05 03:22:20;;;;;;;;;;;9.50;99.90;;;;;;6221953;23;20001;-79
2023/02/05 03:24:46;;;;;;;3.33;2.17;;;9.40;99.90;;;;;;6221247;23;20234;-78
2023/02/05 03:27:12;;;;;;;2.65;1.88;;;9.40;99.90;;;;;;6221459;23;20442;-78
2023/02/05 03:29:43;;;;;;;4.35;2.08;;;9.40;99.90;;;;;;6221557;23;20579;-78
2023/02/05 03:32:35;;;;;;;3.47;2.00;;;9.40;99.90;;;;;;6221470;23;20032;-78
2023/02/05 03:35:20;;;;;;;4.55;2.28;;;9.40;99.90;;;;;;6221071;23;20000;-79
2023/02/05 03:38:06;;;;;;;3.17;2.10;;;9.40;99.90;;;;;;6220238;23;20008;-79
2023/02/05 03:40:41;;;;;;;2.50;1.98;;;9.40;99.90;;;;;;6219635;23;20445;-78
2023/02/05 03:43:31;;;;;;;2.65;1.73;;;9.50;99.90;;;;;;6219577;23;20008;-79
2023/02/05 03:46:18;;;;;;;2.45;1.60;;;9.40;99.90;;;;;;6221320;23;20000;-79
2023/02/05 03:49:02;;;;;;;3.30;1.70;;;9.50;99.90;;;;;;6219701;23;20009;-78
2023/02/05 03:51:50;;;;;;;3.50;1.98;;;9.40;99.90;;;;;;6221165;23;20414;-79
2023/02/05 03:54:29;;;;;;;2.42;1.65;;;9.50;99.90;;;;;;6220995;23;20026;-78
2023/02/05 03:57:13;;;;;;;2.67;1.90;;;9.50;99.90;;;;;;6221356;23;20084;-79
2023/02/05 03:59:39;;;;;;;;;;;9.40;99.90;;;;;;6220293;23;20330;-79
2023/02/05 04:02:05;;;;;;;1.90;1.58;;;9.40;99.90;;;;;;6221150;23;19900;-79
2023/02/05 04:04:31;;;;;;;3.45;2.33;;;9.40;99.90;;;;;;6221164;23;20004;-79
2023/02/05 04:06:57;;;;;;;3.30;2.05;;;9.40;99.90;;;;;;6221052;23;19996;-80
2023/02/05 04:09:22;;;;;;;4.97;2.10;;;9.40;99.90;;;;;;6220832;23;20001;-79
2023/02/05 04:11:48;;;;;;;2.85;1.77;;;9.40;99.90;;;;;;6221281;23;20391;-78
2023/02/05 04:14:14;;;;;;;3.80;2.03;;;9.40;99.90;;;;;;6219427;23;20004;-78
2023/02/05 04:16:40;;;;;;;3.50;2.20;;;9.40;99.90;;;;;;6220978;23;20374;-78
2023/02/05 04:19:05;;;;;;;3.25;2.05;;;9.40;99.90;;;;;;6219710;23;20066;-78
2023/02/05 04:21:31;;;;;;;2.60;1.95;;;9.40;99.90;;;;;;6221097;23;20011;-78
2023/02/05 04:23:57;;;;;;;2.40;2.00;;;9.50;99.90;;;;;;6219076;23;20004;-79
2023/02/05 04:26:23;;;;;;;4.13;2.17;;;9.50;99.90;;;;;;6219296;23;20011;-78
2023/02/05 04:28:48;;;;;;;3.83;1.90;;;9.40;99.90;;;;;;6220857;23;20001;-78
2023/02/05 04:31:14;;;;;;;6.32;2.10;;;9.40;99.90;;;;;;6221111;23;20460;-78
2023/02/05 04:33:40;;;;;;;2.13;1.70;;;9.50;99.90;;;;;;6220781;23;20448;-78
2023/02/05 04:36:07;;;;;;;3.53;2.42;;;9.40;99.90;;;;;;6219386;23;20004;-78
2023/02/05 04:38:33;;;;;;;3.35;2.00;;;9.40;99.90;;;;;;6220527;23;20472;-79
2023/02/05 04:40:59;;;;;;;4.40;1.92;;;9.40;99.90;;;;;;6219675;23;20005;-78
2023/02/05 04:43:25;;;;;;;3.13;2.13;;;9.40;99.90;;;;;;6219257;23;20389;-78
2023/02/05 04:45:51;;;;;;;3.75;1.73;;;9.40;99.90;;;;;;6220834;23;20005;-78
2023/02/05 04:48:17;;;;;;;5.63;2.38;;;9.40;99.90;;;;;;6220435;23;20007;-78
2023/02/05 04:50:43;;;;;;;2.85;1.77;;;9.40;99.90;;;;;;6220868;23;20076;-78
2023/02/05 04:53:09;;;;;;;2.85;1.98;;;9.50;99.90;;;;;;6220653;23;20039;-78
2023/02/05 04:55:34;;;;;;;2.17;1.70;;;9.50;99.90;;;;;;6218798;23;20385;-78
2023/02/05 04:58:00;;;;;;;2.97;1.77;;;9.40;99.90;;;;;;6220589;23;20008;-78
2023/02/05 05:00:26;;;;;;;2.78;1.85;;;9.40;99.90;;;;;;6218959;23;20012;-78
2023/02/05 05:02:51;;;;;;;4.25;2.30;;;9.40;99.90;;;;;;6219240;23;20009;-78
2023/02/05 05:05:18;;;;;;;2.90;1.90;;;9.40;99.90;;;;;;6220676;23;20337;-78
2023/02/05 05:07:44;;;;;;;3.80;2.05;;;9.40;99.90;;;;;;6218789;23;20442;-78
2023/02/05 05:10:10;;;;;;;2.60;1.70;;;9.40;99.90;;;;;;6218076;23;20054;-79
2023/02/05 05:12:37;;;;;;;3.85;2.00;;;9.50;99.90;;;;;;6217569;23;20426;-78
2023/02/05 05:15:04;;;;;;;3.80;2.00;;;9.50;99.90;;;;;;6219108;23;20004;-78
2023/02/05 05:17:31;;;;;;;3.20;1.90;;;9.50;99.90;;;;;;6220577;23;20000;-78
2023/02/05 05:19:57;;;;;;;1.92;1.60;;;9.50;99.90;;;;;;6219006;23;20413;-78
2023/02/05 05:22:23;;;;;;;3.13;1.85;;;9.60;99.90;;;;;;6220639;23;20083;-79
2023/02/05 05:24:48;;;;;;;4.20;1.73;;;9.50;99.90;;;;;;6219025;23;20086;-78
2023/02/05 05:27:15;;;;;;;2.05;1.50;;;9.60;99.90;;;;;;6219338;23;20013;-79
2023/02/05 05:29:41;;;;;;;2.38;1.92;;;9.60;99.90;;;;;;6220967;23;20007;-78
2023/02/05 05:32:07;;;;;;;3.38;1.88;;;9.60;99.90;;;;;;6218507;23;20016;-78
2023/02/05 05:34:32;;;;;;;2.75;2.05;;;9.50;99.90;;;;;;6219205;23;20000;-78
2023/02/05 05:36:58;;;;;;;2.20;1.75;;;9.50;99.90;;;;;;6219915;23;20042;-78
2023/02/05 05:44:54;;;;;;;3.15;1.42;;;9.60;99.90;;;;;;6220275;23;20062;-78
2023/02/05 05:47:20;;;;;;;2.58;1.58;;;9.60;99.90;;;;;;6218569;23;20005;-78
2023/02/05 05:49:46;;;;;;;4.22;1.70;;;9.60;99.90;;;;;;6218860;23;20005;-78
2023/02/05 05:52:12;;;;;;;3.88;1.80;;;9.60;99.90;;;;;;6220532;23;20041;-78
2023/02/05 05:54:38;;;;;;;3.17;1.70;;;9.60;99.90;;;;;;6220441;23;20020;-78
2023/02/05 05:57:05;;;;;;;2.53;1.75;;;9.60;99.90;;;;;;6220581;23;20007;-78
2023/02/05 05:59:31;;;;;;;4.07;1.92;;;9.60;99.90;;;;;;6219012;23;20001;-78
2023/02/05 06:01:56;;;;;;;3.45;1.67;;;9.50;99.90;;;;;;6220268;23;20008;-78
2023/02/05 06:04:22;;;;;;;3.20;2.00;;;9.50;99.90;;;;;;6218648;23;20007;-78
2023/02/05 06:06:47;;;;;;;3.50;1.88;;;9.50;99.90;;;;;;6220485;23;20007;-78
2023/02/05 06:09:13;;;;;;;2.03;1.50;;;9.50;99.90;;;;;;6218367;23;20031;-78
2023/02/05 06:11:39;;;;;;;2.72;1.85;;;9.60;99.90;;;;;;6219108;23;20001;-78
2023/02/05 06:14:04;;;;;;;3.92;1.90;;;9.60;99.90;;;;;;6218681;23;20334;-78
2023/02/05 06:16:30;;;;;;;4.10;1.63;;;9.60;99.90;;;;;;6220234;23;20111;-77
2023/02/05 06:18:56;;;;;;;2.33;1.55;;;9.50;99.90;;;;;;6218517;23;20059;-78
2023/02/05 06:21:21;;;;;;;3.05;2.05;;;9.50;99.90;;;;;;6220295;23;20009;-78
2023/02/05 06:23:47;;;;;;;3.47;2.00;;;9.60;99.90;;;;;;6218547;23;20012;-78
2023/02/05 06:26:14;;;;;;;1.92;1.50;;;9.60;99.90;;;;;;6220243;23;20000;-78
2023/02/05 06:28:39;;;;;;;2.22;1.60;;;9.60;99.90;;;;;;6220181;23;20059;-78
2023/02/05 06:31:05;;;;;;;2.75;1.67;;;9.60;99.90;;;;;;6220024;23;20016;-78
2023/02/05 06:33:31;;;;;;;2.80;1.83;;;9.60;99.90;;;;;;6218780;23;20005;-78
2023/02/05 06:35:56;;;;;;;2.83;1.85;;;9.60;99.90;;;;;;6220285;23;19997;-77
2023/02/05 06:38:22;;;;;;;2.90;1.85;;;9.60;99.90;;;;;;6219951;23;20453;-78
2023/02/05 06:40:48;;;;;;;3.42;1.73;;;9.70;99.90;;;;;;6220239;23;20079;-78
2023/02/05 06:43:14;;;;;;;2.85;1.70;;;9.70;99.90;;;;;;6220201;23;20087;-78
2023/02/05 06:45:39;;;;;;;2.28;1.52;;;9.70;99.90;;;;;;6220169;23;20054;-78
2023/02/05 06:48:05;;;;;;;3.05;1.60;;;9.70;99.90;;;;;;6220350;23;20011;-78
2023/02/05 06:50:31;;;;;;;2.22;1.48;;;9.70;99.90;;;;;;6221993;23;19996;-78
2023/02/05 06:52:57;;;;;;;2.22;1.60;;;9.70;99.90;;;;;;6220559;23;20060;-78
2023/02/05 06:55:22;;;;;;;3.72;1.83;;;9.70;99.90;;;;;;6219844;23;20056;-78
2023/02/05 06:57:48;;;;;;;2.70;1.60;;;9.70;99.90;;;;;;6221918;23;20116;-78
2023/02/05 07:00:14;;;;;;;2.80;1.70;;;9.70;99.90;;;;;;6220162;23;20027;-78
2023/02/05 07:02:40;;;;;;;3.15;1.65;;;9.70;99.90;;;;;;6220057;23;20008;-78
2023/02/05 07:05:06;;;;;;;3.28;1.48;;;9.70;99.90;;;;;;6221845;23;20015;-78
2023/02/05 07:07:32;;;;;;;2.00;1.60;;;9.70;99.90;;;;;;6220350;23;20011;-78
2023/02/05 07:09:58;;;;;;;3.03;2.00;;;9.70;99.90;;;;;;6221806;23;20001;-78
2023/02/05 07:12:24;;;;;;;2.97;1.80;;;9.70;99.90;;;;;;6221685;23;20008;-78
2023/02/05 07:14:50;;;;;;;2.35;1.70;;;9.70;99.90;;;;;;6221760;23;19992;-77
2023/02/05 07:17:15;;;;;;;3.90;1.60;;;9.60;99.90;;;;;;6219789;23;20062;-77
2023/02/05 07:19:41;;;;;;;4.63;1.70;;;9.60;99.90;;;;;;6220406;23;20430;-78
2023/02/05 07:22:07;;;;;;;2.47;1.77;;;9.60;99.90;;;;;;6221591;23;20001;-78
2023/02/05 07:24:32;;;;;;;3.42;1.67;;;9.60;99.90;;;;;;6221392;23;20330;-78
2023/02/05 07:26:58;;;;;;;2.13;1.63;;;9.60;99.90;;;;;;6219636;23;20493;-78
2023/02/05 07:29:24;;;;;;;3.25;1.67;;;9.60;99.90;;;;;;6221581;23;20024;-78
2023/02/05 07:31:51;;;;;;;1.85;1.35;;;9.60;99.90;;;;;;6221159;23;20092;-78
2023/02/05 07:34:17;;;;;;;3.08;1.77;;;9.60;99.90;;;;;;6221585;23;19996;-78
2023/02/05 07:36:43;;;;;;;2.85;1.58;;;9.60;99.90;;;;;;6221449;23;20000;-78
2023/02/05 07:39:09;;;;;;;2.05;1.48;;;9.50;99.90;;;;;;6221204;23;20001;-78
2023/02/05 07:41:34;;;;;;;3.30;1.70;;;9.50;99.90;;;;;;6221458;23;20008;-78
2023/02/05 07:44:00;;;;;;;1.92;1.60;;;9.50;99.90;;;;;;6221465;23;20072;-78
2023/02/05 07:46:26;;;;;;;3.38;1.75;;;9.60;99.90;;;;;;6219387;23;20011;-78
2023/02/05 07:48:53;;;;;;;3.13;1.77;;;9.60;99.90;;;;;;6221258;23;20339;-77
2023/02/05 07:51:23;;;;;;;2.63;1.50;;;9.60;99.90;;;;;;6221376;23;20007;-78
2023/02/05 07:53:50;;;;;;;3.00;1.45;;;9.60;99.90;;;;;;6219795;23;20323;-79
2023/02/05 07:56:16;;;;;;;1.95;1.35;;;9.60;99.90;;;;;;6221290;23;20496;-78
2023/02/05 07:58:42;;;;;;;2.20;1.65;;;9.60;99.90;;;;;;6219748;23;20058;-79
2023/02/05 08:01:08;;;;;;;2.95;1.50;;;9.60;99.90;;;;;;6220462;23;20001;-78
2023/02/05 08:03:34;;;;;;;1.63;1.52;;;9.60;99.90;;;;;;6220933;23;20437;-78
2023/02/05 08:06:06;;;;;;;2.28;1.38;;;9.60;99.90;;;;;;6221074;23;20001;-79
2023/02/05 08:08:32;;;;;;;2.38;1.42;;;9.60;99.90;;;;;;6220892;23;20008;-78
2023/02/05 08:10:59;;;;;;;1.73;1.40;;;9.60;99.90;;;;;;6219489;23;20005;-78
2023/02/05 08:13:25;;;;;;;2.38;1.77;;;9.60;99.90;;;;;;6219871;23;20100;-78
2023/02/05 08:15:51;;;;;;;3.83;1.80;;;9.60;99.90;;;;;;6221134;23;19997;-78
2023/02/05 08:18:17;;;;;;;4.93;2.13;;;9.60;99.90;;;;;;6219731;23;20465;-78
2023/02/05 08:20:43;;;;;;;2.15;1.35;;;9.60;99.90;;;;;;6221444;23;20004;-78
2023/02/05 08:23:09;;;;;;;4.03;1.33;;;9.60;99.90;;;;;;6219376;23;20015;-78
2023/02/05 08:25:34;;;;;;;3.10;1.45;;;9.70;99.90;;;;;;6219009;23;20008;-77
2023/02/05 08:28:00;;;;;;;2.42;1.48;;;9.70;99.90;;;;;;6220536;23;20005;-79
2023/02/05 08:30:26;;;;;;;4.30;1.80;;;9.70;99.90;;;;;;6220784;23;20001;-79
2023/02/05 08:32:51;;;;;;;2.58;1.33;;;9.80;99.90;;;;;;6218650;23;20009;-78
2023/02/05 08:35:17;;;;;;;3.53;1.42;;;9.80;99.90;;;;;;6220126;23;20430;-79
2023/02/05 08:37:43;;;;;;;2.25;1.30;;;9.80;99.90;;;;;;6220640;23;20001;-79
2023/02/05 08:40:09;;;;;;;2.97;1.70;;;9.80;99.90;;;;;;6220395;23;20001;-80
2023/02/05 08:42:35;;;;;;;1.85;1.40;;;9.70;99.90;;;;;;6218811;23;20446;-79
2023/02/05 08:45:02;;;;;;;2.00;1.40;;;9.70;99.90;;;;;;6220501;23;20028;-79
2023/02/05 08:47:28;;;;;;;2.53;1.55;;;9.70;99.90;;;;;;6219292;23;20036;-79
2023/02/05 08:49:54;;;;;;;3.15;2.08;;;9.70;99.90;;;;;;6220798;23;19997;-79
2023/02/05 08:52:19;;;;;;;4.10;1.88;;;9.70;99.90;;;;;;6218872;23;20434;-79
2023/02/05 08:54:46;;;;;;;2.53;1.73;;;9.70;99.90;;;;;;6220350;23;20001;-79
2023/02/05 08:57:12;;;;;;;2.90;1.50;;;9.80;99.90;;;;;;6220770;23;20004;-79
2023/02/05 08:59:38;;;;;;;2.10;1.45;;;9.80;99.90;;;;;;6220712;23;20008;-79
2023/02/05 09:02:04;;;;;;;3.17;1.98;;;9.80;99.90;;;;;;6219359;23;20008;-79
2023/02/05 09:04:30;;;;;;;3.63;1.75;;;9.80;99.90;;;;;;6220618;23;19999;-79
2023/02/05 09:06:55;;;;;;;1.83;1.50;;;9.90;99.90;;;;;;6219424;23;20005;-79
2023/02/05 09:09:21;;;;;;;2.15;1.65;;;9.90;99.90;;;;;;6220441;23;20307;-79
2023/02/05 09:11:47;;;;;;;3.55;1.88;;;9.90;99.90;;;;;;6220775;23;20379;-79
2023/02/05 09:14:14;;;;;;;2.78;1.77;;;10.00;99.90;;;;;;6218910;23;20027;-79
2023/02/05 09:16:40;;;;;;;4.05;1.88;;;10.00;99.90;;;;;;6220507;23;20000;-79
2023/02/05 09:19:06;;;;;;;2.53;1.80;;;10.00;99.90;;;;;;6219010;23;20011;-79
2023/02/05 09:21:32;;;;;;;4.60;1.98;;;10.00;99.90;;;;;;6220485;23;20024;-79
2023/02/05 09:23:58;;;;;;;4.78;1.83;;;10.10;99.90;;;;;;6218190;23;20005;-78
2023/02/05 09:26:24;;;;;;;2.70;1.65;;;10.10;99.90;;;;;;6218738;23;20008;-79
2023/02/05 09:28:49;;;;;;;3.40;1.75;;;10.10;99.90;;;;;;6220358;23;20074;-79
2023/02/05 09:31:17;;;;;;;4.43;2.22;;;10.20;99.90;;;;;;6218654;23;20091;-79
2023/02/05 09:33:44;;;;;;;2.58;1.55;;;10.20;99.90;;;;;;6220216;23;20008;-79
2023/02/05 09:36:12;;;;;;;4.80;2.00;;;10.30;99.90;;;;;;6218170;23;20346;-79
2023/02/05 09:38:40;;;;;;;3.85;1.90;;;10.30;99.90;;;;;;6218352;23;20005;-80
2023/02/05 09:41:12;;;;;;;2.92;1.80;;;10.40;99.90;;;;;;6219724;23;20323;-79
2023/02/05 09:43:59;;;;;;;2.65;1.48;;;10.50;99.90;;;;;;6218239;23;20020;-79
2023/02/05 09:46:49;;;;;;;2.25;1.45;;;10.60;99.90;;;;;;6217942;23;20009;-79
2023/02/05 09:49:30;;;;;;;2.58;1.33;;;10.70;99.90;;;;;;6217741;23;20036;-80
2023/02/05 09:52:16;;;;;;;4.20;1.60;;;10.70;99.90;;;;;;6218343;23;20005;-79
2023/02/05 09:54:45;;;;;;;2.67;1.50;;;10.80;99.90;;;;;;6218459;23;20001;-80
2023/02/05 09:57:15;;;;;;;5.15;1.80;;;10.80;99.90;;;;;;6220575;23;20502;-79
2023/02/05 09:59:45;;;;;;;2.53;1.45;;;10.80;99.90;;;;;;6218163;23;20005;-79
2023/02/05 10:02:27;;;;;;;4.32;2.10;;;10.80;99.90;;;;;;6220123;23;20000;-79
2023/02/05 10:04:56;;;;;;;3.20;1.73;;;10.80;99.90;;;;;;6220257;23;20004;-80
2023/02/05 10:07:47;;;;;;;5.13;1.77;;;10.80;99.90;;;;;;6218450;23;20012;-79
2023/02/05 10:10:23;;;;;;;3.65;1.83;;;10.80;99.90;;;;;;6220073;23;19997;-79
2023/02/05 10:13:07;;;;;;;3.50;2.33;;;10.80;99.90;;;;;;6218825;23;20492;-79
2023/02/05 10:16:09;;;;;;;3.35;1.88;;;10.90;99.90;;;;;;6220810;23;20007;-79
2023/02/05 10:18:47;;;;;;;2.47;1.77;;;10.90;99.90;;;;;;6218333;23;20019;-79
2023/02/05 10:21:34;;;;;;;3.67;2.17;;;10.90;99.90;;;;;;6218897;23;20004;-79
2023/02/05 10:24:05;;;;;;;2.55;1.80;;;11.00;99.90;;;;;;6218702;23;20438;-79
2023/02/05 10:26:47;;;;;;;2.80;1.70;;;10.90;99.90;;;;;;6220224;23;20001;-79
2023/02/05 10:29:43;;;;;;;7.90;1.95;;;10.90;99.90;;;;;;6220479;23;20040;-79
2023/02/05 10:32:15;;;;;;;2.95;1.73;;;11.00;99.90;;;;;;6220869;23;20012;-79
2023/02/05 10:34:52;;;;;;;2.80;1.88;;;11.00;99.90;;;;;;6221866;23;20083;-79
2023/02/05 10:37:20;;;;;;;3.85;1.70;;;11.10;99.90;;;;;;6219923;23;20422;-79
2023/02/05 10:39:48;;;;;;;3.42;2.03;;;11.00;99.90;;;;;;6220589;23;20062;-79
2023/02/05 10:42:28;;;;;;;3.00;1.65;;;11.00;99.90;;;;;;6221621;23;20445;-79
2023/02/05 10:45:11;;;;;;;3.05;1.80;;;11.10;99.90;;;;;;6220192;23;20009;-79
2023/02/05 10:47:40;;;;;;;1.83;1.40;;;11.10;99.90;;;;;;6219331;23;20012;-79
2023/02/05 10:50:42;;;;;;;2.95;1.33;;;11.10;99.90;;;;;;6221925;23;20220;-80
2023/02/05 10:53:07;;;;;;;3.25;1.50;;;11.10;99.90;;;;;;6218660;23;20342;-81
2023/02/05 10:55:33;;;;;;;2.22;1.30;;;11.00;99.90;;;;;;6219361;23;20087;-82
2023/02/05 10:58:06;;;;;;;4.93;1.70;;;11.00;99.90;;;;;;6221342;23;20011;-81
2023/02/05 11:00:32;;;;;;;2.03;1.30;;;11.00;99.90;;;;;;6219203;23;20004;-81
2023/02/05 11:02:59;;;;;;;3.10;1.40;;;11.00;99.90;;;;;;6221365;23;20016;-82
2023/02/05 11:05:39;;;;;;;2.67;1.50;;;11.00;99.90;;;;;;6219499;23;20095;-81
2023/02/05 11:08:24;;;;;;;2.83;1.35;;;11.00;99.90;;;;;;6218604;23;20016;-81
2023/02/05 11:10:52;;;;;;;2.15;1.15;;;11.00;99.90;;;;;;6221111;23;20008;-82
2023/02/05 11:13:20;;;;;;;3.08;1.10;;;11.10;99.90;;;;;;6221774;23;20079;-79
2023/02/05 11:15:58;;;;;;;3.03;1.17;;;11.20;99.90;;;;;;6220638;23;20005;-79
2023/02/05 11:18:40;;;;;;;2.75;1.30;;;11.20;99.90;;;;;;6219851;23;20005;-79
2023/02/05 11:21:07;;;;;;;2.08;1.30;;;11.20;99.90;;;;;;6219712;23;20008;-79
2023/02/05 11:23:38;;;;;;;2.08;1.20;;;11.10;99.90;;;;;;6221125;23;20084;-79
2023/02/05 11:26:16;;;;;;;1.27;0.93;;;11.00;99.90;;;;;;6221363;23;20031;-79
2023/02/05 11:28:42;;;;;;;2.00;1.13;;;11.10;99.90;;;;;;6219938;23;20099;-79
2023/02/05 11:31:24;;;;;;;1.98;1.25;;;11.10;99.90;;;;;;6221371;23;20071;-79
2023/02/05 11:33:50;;;;;;;1.70;1.00;;;11.10;99.90;;;;;;6219937;23;20422;-79
2023/02/05 11:36:24;;;;;;;1.90;1.10;;;11.20;99.90;;;;;;6218982;23;20001;-79
2023/02/05 11:38:56;;;;;;;;;;;11.40;99.90;;;;;;6221669;23;20004;-79
2023/02/05 11:41:46;;;;;;;1.35;0.90;;;11.50;99.90;;;;;;6221380;23;19900;-79
2023/02/05 11:44:28;;;;;;;1.25;0.82;;;11.60;99.90;;;;;;6219818;23;20008;-79
2023/02/05 11:46:56;;;;;;;1.38;1.08;;;11.70;99.90;;;;;;6219533;23;20008;-80
2023/02/05 11:49:33;;;;;;;1.83;1.10;;;11.70;99.90;;;;;;6221160;23;20005;-79
2023/02/05 11:52:06;;;;;;;2.55;1.30;;;11.70;99.90;;;;;;6219791;23;20032;-80
2023/02/05 11:54:33;;;;;;;2.15;1.20;;;11.70;99.90;;;;;;6221016;23;19997;-79
2023/02/05 11:57:02;;;;;;;1.73;1.02;;;11.50;99.90;;;;;;6221345;23;20004;-79
2023/02/05 11:59:28;;;;;;;4.28;1.20;;;11.40;99.90;;;;;;6221105;23;20341;-79
2023/02/05 12:01:54;;;;;;;1.23;1.02;;;11.40;99.90;;;;;;6219561;23;20032;-79
2023/02/05 12:04:20;;;;;;;1.50;1.10;;;11.40;99.90;;;;;;6219844;23;20004;-79
2023/02/05 12:06:51;;;;;;;3.20;1.23;;;11.50;99.90;;;;;;6221097;23;20004;-79
2023/02/05 12:09:20;;;;;;;1.40;1.00;;;11.60;99.90;;;;;;6219259;23;20033;-78
2023/02/05 12:12:20;;;;;;;2.15;1.15;;;11.70;99.90;;;;;;6219511;23;20035;-79
2023/02/05 12:15:06;;;;;;;2.60;1.17;;;11.80;99.90;;;;;;6221127;23;20365;-78
2023/02/05 12:17:50;;;;;;;1.50;1.10;;;11.90;99.90;;;;;;6219393;23;20004;-78
2023/02/05 12:20:32;;;;;;;1.90;1.35;;;12.00;99.90;;;;;;6220962;23;20007;-79
2023/02/05 12:23:23;;;;;;;2.25;1.17;;;12.00;99.90;;;;;;6219211;23;20030;-79
2023/02/05 12:25:59;;;;;;;2.00;1.02;;;12.00;99.90;;;;;;6158296;23;20012;-79
2023/02/05 12:28:30;;;;;;;1.70;1.13;;;11.90;99.90;;;;;;6218682;23;20083;-79
2023/02/05 12:31:21;;;;;;;1.65;0.82;;;11.90;99.90;;;;;;6220673;23;20020;-79
2023/02/05 12:34:23;;;;;;;2.70;1.20;;;11.80;99.90;;;;;;6219204;23;20000;-79
2023/02/05 12:37:07;;;;;;;2.42;1.05;;;11.70;99.90;;;;;;6197438;23;20338;-78
2023/02/05 12:39:50;;;;;;;2.15;1.10;;;11.60;99.90;;;;;;6219359;23;20040;-78
2023/02/05 12:42:35;;;;;;;2.97;1.55;;;11.60;99.90;;;;;;6220942;23;20054;-78
2023/02/05 12:45:23;;;;;;;3.78;1.13;;;11.60;99.90;;;;;;6219366;23;20039;-78
2023/02/05 12:47:54;;;;;;;2.20;1.25;;;11.70;99.90;;;;;;6220493;23;20108;-78
2023/02/05 12:50:41;;;;;;;3.65;1.15;;;11.70;99.90;;;;;;6220647;23;20001;-78
2023/02/05 12:53:51;;;;;;;1.55;1.00;;;11.80;99.90;;;;;;6220361;23;19997;-78
2023/02/05 12:56:41;;;;;;;2.40;1.02;;;11.80;99.90;;;;;;6158295;23;20072;-79
2023/02/05 12:59:30;;;;;;;2.08;1.15;;;11.90;99.90;;;;;;6158294;23;20121;-79
2023/02/05 13:02:18;;;;;;;2.05;1.10;;;11.80;99.90;;;;;;6199171;23;20004;-79
2023/02/05 13:05:02;;;;;;;3.22;1.20;;;11.70;99.90;;;;;;6218585;23;20011;-79
2023/02/05 13:07:29;;;;;;;3.80;0.95;;;11.60;99.90;;;;;;6218504;23;20009;-79
2023/02/05 13:10:03;;;;;;;2.08;1.02;;;11.60;99.90;;;;;;6220013;23;20076;-79
2023/02/05 13:12:34;;;;;;;2.38;1.13;;;11.60;99.90;;;;;;6220542;23;19997;-80
2023/02/05 13:15:15;;;;;;;1.83;0.90;;;11.60;99.90;;;;;;6220447;23;20001;-80
2023/02/05 13:17:54;;;;;;;1.70;0.80;;;11.50;99.90;;;;;;6220211;23;20062;-80